Time;durP1;ratioP1;P1;durP2;ratioP2;P2;SDS_P1;SDS_P2;PMS_P1;PMS_P2;Temp;Humidity;BMP_temperature;BMP_pressure;BME280_temperature;BME280_humidity;BME280_pressure;Samples;Min_cycle;Max_cycle;Signal;HPM_P1;HPM_P2
2023/05/30 00:01:15;;;;;;;0.65;0.60;;;18.60;55.30;;;;;;5010405;28;20217;-54
2023/05/30 00:03:46;;;;;;;2.15;0.70;;;18.60;55.20;;;;;;5011154;28;20204;-57
2023/05/30 00:06:18;;;;;;;1.75;0.70;;;18.60;55.10;;;;;;5013675;28;20259;-58
2023/05/30 00:08:48;;;;;;;0.70;0.55;;;18.60;55.10;;;;;;5013784;28;20280;-57
2023/05/30 00:11:19;;;;;;;0.80;0.50;;;18.60;55.00;;;;;;5012981;28;20223;-56
2023/05/30 00:13:52;;;;;;;1.42;0.65;;;18.60;55.00;;;;;;5013741;28;20196;-56
2023/05/30 00:16:23;;;;;;;2.08;0.60;;;18.60;55.00;;;;;;5013731;28;20204;-54
2023/05/30 00:18:56;;;;;;;0.98;0.60;;;18.60;55.10;;;;;;5013716;28;20197;-56
2023/05/30 00:21:28;;;;;;;1.05;0.60;;;18.60;55.10;;;;;;5013698;28;20232;-57
2023/05/30 00:24:00;;;;;;;1.00;0.70;;;18.60;55.10;;;;;;5012890;28;20561;-58
2023/05/30 00:26:31;;;;;;;1.10;0.70;;;18.70;55.20;;;;;;5013773;28;20274;-58
2023/05/30 00:29:03;;;;;;;2.42;0.55;;;18.70;55.20;;;;;;5012957;28;20575;-58
2023/05/30 00:31:34;;;;;;;1.08;0.77;;;18.70;55.10;;;;;;5013476;28;20220;-55
2023/05/30 00:34:04;;;;;;;1.20;0.70;;;18.70;55.10;;;;;;5013177;28;20250;-57
2023/05/30 00:36:35;;;;;;;1.02;0.60;;;18.70;55.10;;;;;;5013307;28;20192;-56
2023/05/30 00:39:06;;;;;;;0.85;0.85;;;18.70;55.00;;;;;;5012374;28;20649;-56
2023/05/30 00:41:37;;;;;;;1.20;0.57;;;18.70;55.00;;;;;;5012914;28;20211;-57
2023/05/30 00:44:10;;;;;;;1.50;0.73;;;18.70;55.00;;;;;;5013337;28;20197;-56
2023/05/30 00:46:41;;;;;;;1.50;0.60;;;18.70;55.60;;;;;;5012424;28;20251;-56
2023/05/30 00:49:12;;;;;;;1.50;0.68;;;18.70;54.90;;;;;;4993627;28;20206;-57
2023/05/30 00:51:42;;;;;;;0.60;0.60;;;18.80;55.00;;;;;;5002600;28;20213;-58
2023/05/30 00:54:13;;;;;;;1.05;0.63;;;18.70;54.90;;;;;;5013125;28;20208;-57
2023/05/30 00:56:44;;;;;;;1.15;0.60;;;18.80;54.90;;;;;;5012401;28;20259;-57
2023/05/30 00:59:17;;;;;;;1.55;0.77;;;18.80;54.90;;;;;;5012101;28;20208;-57
2023/05/30 01:01:48;;;;;;;1.40;0.50;;;18.80;54.90;;;;;;5012327;28;20221;-57
2023/05/30 01:04:19;;;;;;;1.08;0.47;;;18.80;54.90;;;;;;5012999;28;20197;-56
2023/05/30 01:06:49;;;;;;;0.50;0.40;;;18.90;54.90;;;;;;5012405;28;20228;-57
2023/05/30 01:09:20;;;;;;;1.02;0.50;;;18.90;54.90;;;;;;5012630;28;20196;-56
2023/05/30 01:12:03;;;;;;;1.88;0.70;;;18.90;54.80;;;;;;5012563;28;20216;-56
2023/05/30 01:14:52;;;;;;;1.33;0.70;;;18.90;54.80;;;;;;5012414;28;20288;-55
2023/05/30 01:17:32;;;;;;;1.73;0.63;;;18.90;54.80;;;;;;5012766;28;20632;-57
2023/05/30 01:20:07;;;;;;;1.42;0.52;;;19.00;54.80;;;;;;5012187;28;20263;-56
2023/05/30 01:23:08;;;;;;;0.77;0.50;;;18.90;54.60;;;;;;5012156;28;20216;-56
2023/05/30 01:26:07;;;;;;;2.75;0.50;;;18.90;54.60;;;;;;5011866;28;20228;-57
2023/05/30 01:28:41;;;;;;;0.68;0.40;;;19.00;54.60;;;;;;5011856;28;20231;-57
2023/05/30 01:31:13;;;;;;;0.50;0.50;;;19.00;54.50;;;;;;5011829;28;20212;-54
2023/05/30 01:33:46;;;;;;;0.95;0.50;;;19.00;54.50;;;;;;5012461;28;20200;-56
2023/05/30 01:36:16;;;;;;;0.80;0.47;;;19.00;54.50;;;;;;5011814;28;20193;-54
2023/05/30 01:38:47;;;;;;;0.65;0.40;;;19.10;54.50;;;;;;5012512;28;20208;-54
2023/05/30 01:41:24;;;;;;;0.45;0.35;;;19.00;54.40;;;;;;5011472;28;20708;-56
2023/05/30 01:44:05;;;;;;;0.65;0.50;;;19.10;54.40;;;;;;5012119;28;20208;-58
2023/05/30 01:46:38;;;;;;;1.35;0.60;;;19.10;54.40;;;;;;5011426;28;20228;-53
2023/05/30 01:49:18;;;;;;;1.40;0.60;;;19.10;54.40;;;;;;5011067;28;20197;-57
2023/05/30 01:51:59;;;;;;;1.33;0.52;;;19.10;54.40;;;;;;5011844;28;20219;-54
2023/05/30 01:54:33;;;;;;;0.57;0.55;;;19.10;54.30;;;;;;5011151;28;20612;-54
2023/05/30 01:57:08;;;;;;;0.82;0.50;;;19.10;54.30;;;;;;5011481;28;20193;-54
2023/05/30 01:59:41;;;;;;;0.77;0.43;;;19.20;54.20;;;;;;5011678;28;20605;-55
2023/05/30 02:02:13;;;;;;;0.82;0.43;;;19.20;54.30;;;;;;5011396;28;20219;-56
2023/05/30 02:04:44;;;;;;;0.73;0.50;;;19.20;54.30;;;;;;5011535;28;20573;-56
2023/05/30 02:07:14;;;;;;;1.02;0.60;;;19.20;54.20;;;;;;5012031;28;20231;-54
2023/05/30 02:09:45;;;;;;;1.15;0.60;;;19.20;54.20;;;;;;5010490;28;20212;-54
2023/05/30 02:12:15;;;;;;;1.17;0.70;;;19.30;54.30;;;;;;5010292;28;20218;-52
2023/05/30 02:14:54;;;;;;;0.80;0.30;;;19.30;54.30;;;;;;5011387;28;20200;-54
2023/05/30 02:17:25;;;;;;;0.50;0.30;;;19.30;54.20;;;;;;5011132;28;20207;-52
2023/05/30 02:19:57;;;;;;;0.85;0.35;;;19.40;54.40;;;;;;5012147;28;20354;-53
2023/05/30 02:22:27;;;;;;;0.52;0.30;;;19.40;54.30;;;;;;5011427;28;20225;-53
2023/05/30 02:24:58;;;;;;;0.77;0.30;;;19.40;54.20;;;;;;5010919;28;20197;-55
2023/05/30 02:27:29;;;;;;;0.50;0.50;;;19.40;54.20;;;;;;5011040;28;20204;-56
2023/05/30 02:30:02;;;;;;;0.68;0.50;;;19.40;54.20;;;;;;5011459;28;20205;-56
2023/05/30 02:32:32;;;;;;;0.68;0.47;;;19.50;54.30;;;;;;5010946;28;20249;-58
2023/05/30 02:35:03;;;;;;;0.70;0.55;;;19.50;54.30;;;;;;5011228;28;20201;-56
2023/05/30 02:37:33;;;;;;;0.93;0.40;;;19.50;54.30;;;;;;5011122;28;20208;-57
2023/05/30 02:40:04;;;;;;;0.65;0.40;;;19.50;54.30;;;;;;5010808;28;20201;-56
2023/05/30 02:42:35;;;;;;;0.73;0.50;;;19.50;54.30;;;;;;5010495;28;20213;-58
2023/05/30 02:45:08;;;;;;;1.25;0.40;;;19.60;54.30;;;;;;5010881;28;20205;-56
2023/05/30 02:47:38;;;;;;;0.45;0.40;;;19.60;54.30;;;;;;5011149;28;20590;-57
2023/05/30 02:50:10;;;;;;;0.88;0.43;;;19.60;54.20;;;;;;5010928;28;20197;-57
2023/05/30 02:52:40;;;;;;;0.73;0.40;;;19.60;54.20;;;;;;5010820;28;20309;-56
2023/05/30 02:55:12;;;;;;;0.50;0.47;;;19.70;54.40;;;;;;5010381;28;20193;-58
2023/05/30 02:57:43;;;;;;;0.52;0.40;;;19.70;54.30;;;;;;5010829;28;20653;-55
2023/05/30 03:00:17;;;;;;;1.13;0.50;;;19.70;54.30;;;;;;5010995;28;20185;-55
2023/05/30 03:02:47;;;;;;;0.77;0.40;;;19.70;54.40;;;;;;5010204;28;20217;-55
2023/05/30 03:05:19;;;;;;;0.93;0.40;;;19.70;54.40;;;;;;5011151;28;20203;-58
2023/05/30 03:07:51;;;;;;;0.80;0.40;;;19.80;54.50;;;;;;5010216;28;20225;-57
2023/05/30 03:10:22;;;;;;;0.30;0.30;;;19.80;54.40;;;;;;5011362;28;20561;-54
2023/05/30 03:12:52;;;;;;;0.40;0.38;;;19.80;54.40;;;;;;5010582;28;20217;-58
2023/05/30 03:15:26;;;;;;;1.15;0.35;;;19.80;54.40;;;;;;5011005;28;20653;-57
2023/05/30 03:17:57;;;;;;;0.30;0.30;;;19.80;54.40;;;;;;5011704;28;20589;-57
2023/05/30 03:20:28;;;;;;;0.22;0.22;;;19.80;54.40;;;;;;5011377;28;20216;-57
2023/05/30 03:22:59;;;;;;;0.30;0.30;;;19.90;54.40;;;;;;5011191;28;20255;-57
2023/05/30 03:25:29;;;;;;;0.50;0.40;;;19.90;54.40;;;;;;5011377;28;20653;-58
2023/05/30 03:28:00;;;;;;;1.27;0.43;;;19.90;54.40;;;;;;5010822;28;20193;-56
2023/05/30 03:30:33;;;;;;;0.80;0.40;;;19.90;54.30;;;;;;5011031;28;20200;-58
2023/05/30 03:33:03;;;;;;;0.40;0.40;;;19.90;54.30;;;;;;5011299;28;20220;-58
2023/05/30 03:35:34;;;;;;;0.75;0.40;;;19.90;54.30;;;;;;5011296;28;20193;-58
2023/05/30 03:38:05;;;;;;;0.55;0.32;;;20.00;54.30;;;;;;5011127;28;20224;-56
2023/05/30 03:40:35;;;;;;;0.30;0.30;;;20.00;54.30;;;;;;5015001;28;20240;-57
2023/05/30 03:43:06;;;;;;;1.30;0.40;;;20.00;54.40;;;;;;5014840;28;20224;-57
2023/05/30 03:45:38;;;;;;;0.60;0.50;;;20.00;54.40;;;;;;5014678;28;20211;-55
2023/05/30 03:48:09;;;;;;;0.30;0.30;;;20.00;54.40;;;;;;5014884;28;20205;-56
2023/05/30 03:50:40;;;;;;;0.30;0.30;;;20.00;54.40;;;;;;5014758;28;20200;-58
2023/05/30 03:53:10;;;;;;;0.50;0.40;;;20.00;54.30;;;;;;5014662;28;20217;-56
2023/05/30 03:55:41;;;;;;;0.35;0.25;;;20.00;54.30;;;;;;5014840;28;20754;-57
2023/05/30 03:58:12;;;;;;;0.30;0.20;;;20.00;54.30;;;;;;5014086;28;20224;-58
2023/05/30 04:00:44;;;;;;;0.40;0.40;;;20.00;54.40;;;;;;5010076;28;20649;-56
2023/05/30 04:03:19;;;;;;;0.47;0.35;;;20.00;54.30;;;;;;5014445;28;20197;-58
2023/05/30 04:05:50;;;;;;;0.90;0.40;;;20.00;54.20;;;;;;5013773;28;20199;-58
2023/05/30 04:08:22;;;;;;;0.80;0.50;;;20.00;54.20;;;;;;5014084;28;20201;-58
2023/05/30 04:10:52;;;;;;;0.30;0.30;;;20.00;54.10;;;;;;5013991;28;20193;-56
2023/05/30 04:13:23;;;;;;;0.45;0.32;;;20.00;54.10;;;;;;5012497;28;20199;-58
2023/05/30 04:15:56;;;;;;;0.70;0.30;;;20.00;54.00;;;;;;5013300;28;20193;-56
2023/05/30 04:18:26;;;;;;;0.22;0.22;;;20.10;54.10;;;;;;5001965;28;20216;-58
2023/05/30 04:20:57;;;;;;;0.40;0.40;;;20.10;54.20;;;;;;5013052;28;20244;-58
2023/05/30 04:23:27;;;;;;;0.30;0.30;;;20.10;54.20;;;;;;5014043;28;20892;-58
2023/05/30 04:25:58;;;;;;;0.65;0.20;;;20.10;54.20;;;;;;5013910;28;20193;-58
2023/05/30 04:28:29;;;;;;;0.57;0.30;;;20.10;54.20;;;;;;5011306;28;20197;-58
2023/05/30 04:31:01;;;;;;;0.28;0.20;;;20.10;54.10;;;;;;5013559;28;20204;-57
2023/05/30 04:33:35;;;;;;;0.47;0.30;;;20.10;54.10;;;;;;5014124;28;20201;-58
2023/05/30 04:36:09;;;;;;;0.40;0.40;;;20.10;54.10;;;;;;5013480;28;20279;-58
2023/05/30 04:38:39;;;;;;;0.30;0.30;;;20.10;54.10;;;;;;5014099;28;20197;-57
2023/05/30 04:41:10;;;;;;;0.50;0.22;;;20.10;54.10;;;;;;5012809;28;20221;-56
2023/05/30 04:43:41;;;;;;;0.50;0.30;;;20.10;53.90;;;;;;5013072;28;20208;-57
2023/05/30 04:46:13;;;;;;;0.93;0.30;;;20.10;53.80;;;;;;5012848;28;20243;-57
2023/05/30 04:48:44;;;;;;;0.30;0.30;;;20.10;53.80;;;;;;5012594;28;20205;-58
2023/05/30 04:51:15;;;;;;;0.40;0.32;;;20.10;53.70;;;;;;5012956;28;20223;-58
2023/05/30 04:53:46;;;;;;;0.40;0.30;;;20.10;53.70;;;;;;5013024;28;20203;-57
2023/05/30 04:56:16;;;;;;;0.57;0.40;;;20.10;53.50;;;;;;5013483;28;20197;-55
2023/05/30 04:58:48;;;;;;;0.20;0.20;;;20.10;53.60;;;;;;5012987;28;20197;-57
2023/05/30 05:01:21;;;;;;;0.40;0.40;;;20.10;53.70;;;;;;5012596;28;20224;-58
2023/05/30 05:03:51;;;;;;;0.25;0.25;;;20.10;53.70;;;;;;5009383;28;20197;-57
2023/05/30 05:06:22;;;;;;;0.40;0.40;;;20.10;53.60;;;;;;5012410;28;20256;-57
2023/05/30 05:08:53;;;;;;;0.52;0.47;;;20.00;53.50;;;;;;5012495;28;20196;-58
2023/05/30 05:11:23;;;;;;;0.60;0.40;;;20.10;53.60;;;;;;5012389;28;20213;-57
2023/05/30 05:13:54;;;;;;;0.80;0.55;;;20.00;53.40;;;;;;5011882;28;20201;-57
2023/05/30 05:16:26;;;;;;;0.45;0.40;;;20.10;53.40;;;;;;5012446;28;20573;-58
2023/05/30 05:18:57;;;;;;;0.40;0.30;;;20.00;53.30;;;;;;5012942;28;20613;-58
2023/05/30 05:21:27;;;;;;;0.40;0.40;;;20.00;53.30;;;;;;5012776;28;20224;-58
2023/05/30 05:23:58;;;;;;;0.30;0.30;;;20.00;53.30;;;;;;5012499;28;20232;-58
2023/05/30 05:26:29;;;;;;;0.30;0.30;;;20.00;53.30;;;;;;5012730;28;20704;-57
2023/05/30 05:29:00;;;;;;;0.43;0.40;;;20.00;53.30;;;;;;5012000;28;20211;-58
2023/05/30 05:31:33;;;;;;;0.30;0.30;;;20.00;53.30;;;;;;5013004;28;20220;-58
2023/05/30 05:34:03;;;;;;;0.57;0.43;;;20.00;53.30;;;;;;5013003;28;20571;-58
2023/05/30 05:36:35;;;;;;;0.35;0.35;;;20.00;53.30;;;;;;5012854;28;20284;-57
2023/05/30 05:39:05;;;;;;;0.50;0.40;;;20.00;53.30;;;;;;5012312;28;20555;-57
2023/05/30 05:41:36;;;;;;;0.47;0.38;;;20.00;53.30;;;;;;5012403;28;20221;-58
2023/05/30 05:44:07;;;;;;;0.60;0.30;;;20.00;53.40;;;;;;5011754;28;20200;-57
2023/05/30 05:46:39;;;;;;;0.30;0.30;;;20.00;53.30;;;;;;5012004;28;20712;-57
2023/05/30 05:49:10;;;;;;;0.68;0.50;;;19.90;53.20;;;;;;5012181;28;20204;-58
2023/05/30 05:51:41;;;;;;;0.40;0.40;;;19.90;53.20;;;;;;5011094;28;20217;-56
2023/05/30 05:54:11;;;;;;;0.65;0.60;;;19.90;53.20;;;;;;5011696;28;20197;-58
2023/05/30 05:56:42;;;;;;;0.30;0.30;;;19.90;53.20;;;;;;5011986;28;20196;-56
2023/05/30 05:59:12;;;;;;;0.40;0.40;;;19.90;53.20;;;;;;5011853;28;20197;-56
2023/05/30 06:01:45;;;;;;;0.40;0.40;;;19.90;53.30;;;;;;5011095;28;20720;-58
2023/05/30 06:04:16;;;;;;;0.30;0.30;;;19.90;53.30;;;;;;5011379;28;20230;-55
2023/05/30 06:06:46;;;;;;;0.30;0.30;;;19.90;53.30;;;;;;5010741;28;20715;-58
2023/05/30 06:09:17;;;;;;;0.30;0.30;;;19.90;53.30;;;;;;5011082;28;20231;-58
2023/05/30 06:11:48;;;;;;;0.52;0.30;;;19.90;53.30;;;;;;5012085;28;20220;-57
2023/05/30 06:14:18;;;;;;;1.52;0.40;;;19.90;53.40;;;;;;5009880;28;20204;-57
2023/05/30 06:16:51;;;;;;;0.20;0.20;;;19.80;53.30;;;;;;5011792;28;20734;-56
2023/05/30 06:19:22;;;;;;;0.68;0.30;;;19.80;53.30;;;;;;5011254;28;20925;-58
2023/05/30 06:21:56;;;;;;;0.50;0.50;;;19.80;53.30;;;;;;5011903;28;20223;-54
2023/05/30 06:24:26;;;;;;;0.50;0.38;;;19.80;53.30;;;;;;5011283;28;20200;-57
2023/05/30 06:26:57;;;;;;;0.40;0.40;;;19.80;53.30;;;;;;5011265;28;20755;-58
2023/05/30 06:29:27;;;;;;;0.45;0.40;;;19.80;53.30;;;;;;5010487;28;20657;-58
2023/05/30 06:32:00;;;;;;;0.40;0.40;;;19.80;53.20;;;;;;5011047;28;20235;-58
2023/05/30 06:34:31;;;;;;;0.60;0.40;;;19.80;53.30;;;;;;5011312;28;20672;-58
2023/05/30 06:37:01;;;;;;;0.30;0.30;;;19.80;53.40;;;;;;5010825;28;20204;-57
2023/05/30 06:39:33;;;;;;;0.32;0.32;;;19.70;53.90;;;;;;5010640;28;20189;-58
2023/05/30 06:42:03;;;;;;;0.60;0.43;;;19.70;53.30;;;;;;5008549;28;20205;-57
2023/05/30 06:44:34;;;;;;;0.40;0.40;;;19.70;53.30;;;;;;5001906;28;20212;-57
2023/05/30 06:47:07;;;;;;;0.50;0.50;;;19.70;53.30;;;;;;5008390;28;20221;-57
2023/05/30 06:49:37;;;;;;;0.38;0.38;;;19.70;53.40;;;;;;5010314;28;20642;-54
2023/05/30 06:52:08;;;;;;;0.30;0.30;;;19.70;53.40;;;;;;5008072;28;20228;-58
2023/05/30 06:54:39;;;;;;;0.40;0.38;;;19.70;53.50;;;;;;5010174;28;20668;-58
2023/05/30 06:57:10;;;;;;;1.30;0.40;;;19.70;53.40;;;;;;5010781;28;20196;-54
2023/05/30 06:59:40;;;;;;;0.40;0.40;;;19.70;53.40;;;;;;5010729;28;20193;-56
2023/05/30 07:02:13;;;;;;;0.40;0.40;;;19.70;53.50;;;;;;5011283;28;20256;-57
2023/05/30 07:04:43;;;;;;;0.35;0.35;;;19.70;53.40;;;;;;5010042;28;20196;-55
2023/05/30 07:07:14;;;;;;;0.75;0.40;;;19.70;53.40;;;;;;5010805;28;20223;-57
2023/05/30 07:09:45;;;;;;;0.50;0.50;;;19.70;53.50;;;;;;5010533;28;20539;-56
2023/05/30 07:12:16;;;;;;;0.40;0.40;;;19.60;53.40;;;;;;5010845;28;20216;-59
2023/05/30 07:14:46;;;;;;;1.00;0.50;;;19.60;53.40;;;;;;5014860;28;20279;-56
2023/05/30 07:17:19;;;;;;;1.20;0.38;;;19.60;53.50;;;;;;5015157;28;20200;-57
2023/05/30 07:19:50;;;;;;;1.13;0.40;;;19.60;53.50;;;;;;5015489;28;20201;-58
2023/05/30 07:22:20;;;;;;;0.40;0.40;;;19.60;53.50;;;;;;5014471;28;20625;-57
2023/05/30 07:24:51;;;;;;;0.43;0.40;;;19.60;53.50;;;;;;5014154;28;20314;-55
2023/05/30 07:27:22;;;;;;;0.30;0.30;;;19.50;53.50;;;;;;5015067;28;20228;-55
2023/05/30 07:29:52;;;;;;;0.40;0.40;;;19.60;53.60;;;;;;5014784;28;20266;-57
2023/05/30 07:32:26;;;;;;;0.30;0.28;;;19.50;53.60;;;;;;5015046;28;20274;-56
2023/05/30 07:34:57;;;;;;;0.60;0.40;;;19.50;53.60;;;;;;5014931;28;20196;-56
2023/05/30 07:37:28;;;;;;;0.30;0.30;;;19.60;53.70;;;;;;5014727;28;20251;-58
2023/05/30 07:39:58;;;;;;;0.40;0.40;;;19.50;53.60;;;;;;5014567;28;20208;-56
2023/05/30 07:42:29;;;;;;;0.30;0.30;;;19.50;53.60;;;;;;5014934;28;20746;-56
2023/05/30 07:45:00;;;;;;;0.30;0.30;;;19.50;53.60;;;;;;5014960;28;20207;-58
2023/05/30 07:47:33;;;;;;;0.60;0.50;;;19.50;53.60;;;;;;5014475;28;20224;-54
2023/05/30 07:50:03;;;;;;;0.40;0.38;;;19.50;53.60;;;;;;5015008;28;20197;-59
2023/05/30 07:52:34;;;;;;;0.60;0.30;;;19.50;53.60;;;;;;5014302;28;20631;-56
2023/05/30 07:55:05;;;;;;;0.70;0.50;;;19.40;53.60;;;;;;5014450;28;20193;-58
2023/05/30 07:57:36;;;;;;;0.57;0.40;;;19.40;53.60;;;;;;5015083;28;20282;-56
2023/05/30 08:00:08;;;;;;;0.30;0.30;;;19.40;53.60;;;;;;5014359;28;20205;-56
2023/05/30 08:02:40;;;;;;;0.40;0.38;;;19.40;53.70;;;;;;5014343;28;20216;-55
2023/05/30 08:05:11;;;;;;;0.35;0.35;;;19.40;53.70;;;;;;5014646;28;20197;-54
2023/05/30 08:07:42;;;;;;;0.50;0.28;;;19.40;53.70;;;;;;5014187;28;20232;-53
2023/05/30 08:10:13;;;;;;;0.40;0.40;;;19.40;53.70;;;;;;5014419;28;20200;-55
2023/05/30 08:12:43;;;;;;;0.40;0.40;;;19.40;53.80;;;;;;5014520;28;20217;-56
2023/05/30 08:15:14;;;;;;;0.60;0.60;;;19.40;53.80;;;;;;5014536;28;20243;-57
2023/05/30 08:17:46;;;;;;;0.52;0.45;;;19.40;53.80;;;;;;5014617;28;20207;-58
2023/05/30 08:20:17;;;;;;;0.40;0.32;;;19.40;53.70;;;;;;5013854;28;20209;-58
2023/05/30 08:22:48;;;;;;;1.52;0.50;;;19.30;53.70;;;;;;5013034;28;20217;-58
2023/05/30 08:25:18;;;;;;;0.43;0.43;;;19.30;53.60;;;;;;5013362;28;20651;-55
2023/05/30 08:27:49;;;;;;;0.73;0.52;;;19.30;53.60;;;;;;5013887;28;20688;-56
2023/05/30 08:30:20;;;;;;;0.40;0.40;;;19.30;53.70;;;;;;5013915;28;20692;-55
2023/05/30 08:32:53;;;;;;;0.57;0.50;;;19.30;53.70;;;;;;5014082;28;20224;-58
2023/05/30 08:35:23;;;;;;;0.70;0.60;;;19.30;53.70;;;;;;5013438;28;20320;-55
2023/05/30 08:37:54;;;;;;;0.65;0.50;;;19.30;53.70;;;;;;5013280;28;20635;-58
2023/05/30 08:40:28;;;;;;;0.90;0.57;;;19.20;53.60;;;;;;5013948;28;20792;-57
2023/05/30 08:42:59;;;;;;;0.90;0.57;;;19.20;53.70;;;;;;5013667;28;20223;-58
2023/05/30 08:45:31;;;;;;;0.80;0.50;;;19.20;53.70;;;;;;5013712;28;20698;-58
2023/05/30 08:48:03;;;;;;;0.40;0.40;;;19.20;53.80;;;;;;5013812;28;20224;-57
2023/05/30 08:50:36;;;;;;;0.40;0.40;;;19.20;53.80;;;;;;5013768;28;20197;-57
2023/05/30 08:53:10;;;;;;;0.50;0.50;;;19.20;53.80;;;;;;5013939;28;20246;-59
2023/05/30 08:55:44;;;;;;;0.60;0.60;;;19.20;54.40;;;;;;5032640;28;20253;-56
2023/05/30 08:58:23;;;;;;;0.68;0.60;;;19.20;53.80;;;;;;5033463;28;20196;-56
2023/05/30 09:00:54;;;;;;;0.65;0.50;;;19.20;53.80;;;;;;5033289;28;20200;-57
2023/05/30 09:03:29;;;;;;;0.60;0.60;;;19.10;53.70;;;;;;5033190;28;20199;-57
2023/05/30 09:06:00;;;;;;;0.60;0.60;;;19.20;53.70;;;;;;5033271;28;20596;-57
2023/05/30 09:08:31;;;;;;;0.60;0.60;;;19.10;53.70;;;;;;5032277;28;20230;-57
2023/05/30 09:11:03;;;;;;;1.45;0.70;;;19.10;53.80;;;;;;5032388;28;20196;-59
2023/05/30 09:13:33;;;;;;;0.88;0.70;;;19.10;53.70;;;;;;5033054;28;20283;-57
2023/05/30 09:16:04;;;;;;;0.60;0.60;;;19.10;53.70;;;;;;5026842;28;20669;-58
2023/05/30 09:18:37;;;;;;;1.00;0.90;;;19.10;53.70;;;;;;5013422;28;20208;-58
2023/05/30 09:21:08;;;;;;;0.52;0.45;;;19.00;53.70;;;;;;5013328;28;20664;-57
2023/05/30 09:23:40;;;;;;;0.65;0.60;;;19.00;53.70;;;;;;5012657;28;20201;-58
2023/05/30 09:26:14;;;;;;;0.70;0.70;;;19.00;53.70;;;;;;5013682;28;20197;-58
2023/05/30 09:28:48;;;;;;;0.60;0.60;;;19.00;53.70;;;;;;5012558;28;20224;-57
2023/05/30 09:31:22;;;;;;;1.00;0.63;;;19.00;53.70;;;;;;5011884;28;20220;-56
2023/05/30 09:33:55;;;;;;;0.65;0.65;;;19.00;53.70;;;;;;5013073;28;20324;-58
2023/05/30 09:36:26;;;;;;;1.02;0.60;;;19.00;53.70;;;;;;5011319;28;20204;-54
2023/05/30 09:38:58;;;;;;;0.70;0.63;;;18.90;53.70;;;;;;5012625;28;20211;-58
2023/05/30 09:41:29;;;;;;;0.80;0.65;;;18.90;53.60;;;;;;5012502;28;20213;-59
2023/05/30 09:44:00;;;;;;;0.60;0.60;;;18.90;53.60;;;;;;5012675;28;20197;-54
2023/05/30 09:46:32;;;;;;;1.00;0.90;;;18.90;53.70;;;;;;5012371;28;20205;-50
2023/05/30 09:49:13;;;;;;;1.05;0.80;;;18.90;53.70;;;;;;5012784;28;20235;-55
2023/05/30 09:51:44;;;;;;;0.63;0.60;;;18.90;53.80;;;;;;5012961;28;20244;-56
2023/05/30 09:54:16;;;;;;;1.00;0.80;;;18.90;53.80;;;;;;5012890;28;20607;-55
2023/05/30 09:56:47;;;;;;;0.68;0.68;;;18.90;53.80;;;;;;5009474;28;20193;-55
2023/05/30 09:59:19;;;;;;;0.98;0.80;;;18.80;53.80;;;;;;5011265;28;20201;-56
2023/05/30 10:01:50;;;;;;;1.17;0.60;;;18.80;53.90;;;;;;5011034;28;20209;-56
2023/05/30 10:04:24;;;;;;;1.25;0.60;;;18.80;53.90;;;;;;5011088;28;20653;-55
2023/05/30 10:06:55;;;;;;;1.02;0.82;;;18.80;53.90;;;;;;5011241;28;20192;-55
2023/05/30 10:09:27;;;;;;;0.90;0.80;;;18.80;53.90;;;;;;5011635;28;20221;-56
2023/05/30 10:12:03;;;;;;;0.55;0.52;;;18.80;53.90;;;;;;5011352;28;20235;-55
2023/05/30 10:14:34;;;;;;;0.75;0.63;;;18.80;53.90;;;;;;5009924;28;20196;-58
2023/05/30 10:17:09;;;;;;;0.57;0.57;;;18.70;53.80;;;;;;5011360;28;20205;-57
2023/05/30 10:19:46;;;;;;;0.70;0.68;;;18.70;53.80;;;;;;5012036;28;20247;-57
2023/05/30 10:22:19;;;;;;;0.60;0.60;;;18.70;53.80;;;;;;5010554;28;20217;-57
2023/05/30 10:24:50;;;;;;;0.60;0.60;;;18.70;53.80;;;;;;5011232;28;20200;-58
2023/05/30 10:27:27;;;;;;;0.65;0.57;;;18.70;53.80;;;;;;5010683;28;20189;-58
2023/05/30 10:30:06;;;;;;;0.80;0.70;;;18.60;53.80;;;;;;5011376;28;20232;-57
2023/05/30 10:32:38;;;;;;;1.00;0.70;;;18.70;53.90;;;;;;5011319;28;20366;-58
2023/05/30 10:35:14;;;;;;;0.65;0.60;;;18.60;53.80;;;;;;5011351;28;20280;-58
2023/05/30 10:37:46;;;;;;;0.57;0.57;;;18.60;53.80;;;;;;5011497;28;20254;-57
2023/05/30 10:40:30;;;;;;;0.60;0.60;;;18.60;53.90;;;;;;5009684;28;20272;-55
2023/05/30 10:43:13;;;;;;;0.63;0.57;;;18.60;53.90;;;;;;5010963;28;20216;-55
2023/05/30 10:45:53;;;;;;;0.63;0.63;;;18.60;53.90;;;;;;5009919;28;20214;-58
2023/05/30 10:48:32;;;;;;;0.70;0.65;;;18.50;53.80;;;;;;5010345;28;20753;-52
2023/05/30 10:51:06;;;;;;;0.63;0.52;;;18.60;54.50;;;;;;5010123;28;20196;-56
2023/05/30 10:53:43;;;;;;;0.82;0.73;;;18.60;53.90;;;;;;5011200;28;20196;-58
2023/05/30 10:56:43;;;;;;;0.95;0.70;;;18.50;53.90;;;;;;5011137;28;20649;-56
2023/05/30 10:59:17;;;;;;;0.60;0.52;;;18.50;53.90;;;;;;4967656;28;20193;-56
2023/05/30 11:02:02;;;;;;;0.60;0.60;;;18.50;53.80;;;;;;5011264;28;20223;-55
2023/05/30 11:04:35;;;;;;;0.50;0.50;;;18.40;53.90;;;;;;5011166;28;20208;-58
2023/05/30 11:07:09;;;;;;;0.70;0.70;;;18.50;53.90;;;;;;5009974;28;20196;-56
2023/05/30 11:09:44;;;;;;;1.40;0.70;;;18.50;53.90;;;;;;5010998;28;20220;-57
2023/05/30 11:12:24;;;;;;;1.25;0.60;;;18.40;53.90;;;;;;5011131;28;20224;-58
2023/05/30 11:14:59;;;;;;;0.75;0.70;;;18.40;54.00;;;;;;5010845;28;20276;-58
2023/05/30 11:17:33;;;;;;;0.80;0.80;;;18.40;53.90;;;;;;5010721;28;20845;-58
2023/05/30 11:20:14;;;;;;;0.60;0.60;;;18.40;54.00;;;;;;5010994;28;20212;-58
2023/05/30 11:23:20;;;;;;;0.90;0.60;;;18.40;54.00;;;;;;5011263;28;20252;-57
2023/05/30 11:25:51;;;;;;;0.63;0.60;;;18.30;53.90;;;;;;5010785;28;20603;-57
2023/05/30 11:28:38;;;;;;;0.60;0.60;;;18.40;53.90;;;;;;5010315;28;20220;-58
2023/05/30 11:31:21;;;;;;;0.77;0.68;;;18.30;53.90;;;;;;5009906;28;20207;-56
2023/05/30 11:33:52;;;;;;;0.40;0.40;;;18.30;54.00;;;;;;5010580;28;20236;-56
2023/05/30 11:36:24;;;;;;;0.60;0.60;;;18.30;53.90;;;;;;5010222;28;20193;-54
2023/05/30 11:38:59;;;;;;;0.70;0.70;;;18.30;53.90;;;;;;5010616;28;20263;-58
2023/05/30 11:41:30;;;;;;;0.50;0.50;;;18.30;53.90;;;;;;5009880;28;20603;-56
2023/05/30 11:44:01;;;;;;;1.30;0.47;;;18.30;53.90;;;;;;5009601;28;20200;-57
2023/05/30 11:46:32;;;;;;;0.60;0.50;;;18.30;54.00;;;;;;5010497;28;20200;-58
2023/05/30 11:49:07;;;;;;;0.60;0.60;;;18.20;53.90;;;;;;5011489;28;20233;-59
2023/05/30 11:51:39;;;;;;;0.50;0.50;;;18.20;54.00;;;;;;5010847;28;20204;-59
2023/05/30 11:54:12;;;;;;;0.60;0.60;;;18.20;54.00;;;;;;5010905;28;20634;-58
2023/05/30 11:56:43;;;;;;;0.52;0.50;;;18.20;53.90;;;;;;5009908;28;20189;-59
2023/05/30 11:59:13;;;;;;;0.60;0.60;;;18.20;54.00;;;;;;5010806;28;20559;-59
2023/05/30 12:01:44;;;;;;;0.65;0.60;;;18.20;54.00;;;;;;5011967;28;20217;-58
2023/05/30 12:04:15;;;;;;;0.40;0.40;;;18.10;54.00;;;;;;5014166;28;20285;-57
2023/05/30 12:06:48;;;;;;;0.60;0.60;;;18.10;54.00;;;;;;5013861;28;20193;-58
2023/05/30 12:09:21;;;;;;;1.17;0.50;;;18.10;54.00;;;;;;5013642;28;20619;-59
2023/05/30 12:11:59;;;;;;;0.63;0.50;;;18.10;54.00;;;;;;5014189;28;20240;-59
2023/05/30 12:14:41;;;;;;;0.43;0.40;;;18.10;54.00;;;;;;5012141;28;20861;-58
2023/05/30 12:17:16;;;;;;;0.93;0.63;;;18.10;53.90;;;;;;5012872;28;20200;-58
2023/05/30 12:19:47;;;;;;;0.52;0.52;;;18.10;53.90;;;;;;5011852;28;20207;-58
2023/05/30 12:22:18;;;;;;;1.02;0.63;;;18.10;54.00;;;;;;5013850;28;20224;-59
2023/05/30 12:24:51;;;;;;;1.10;0.57;;;18.00;53.90;;;;;;5013629;28;20201;-58
2023/05/30 12:27:23;;;;;;;0.60;0.50;;;18.10;54.00;;;;;;5010282;28;20200;-59
2023/05/30 12:29:54;;;;;;;0.60;0.55;;;18.00;54.00;;;;;;5013484;28;20696;-59
2023/05/30 12:32:28;;;;;;;0.65;0.55;;;18.00;54.00;;;;;;5011496;28;20627;-59
2023/05/30 12:35:01;;;;;;;0.57;0.50;;;18.00;54.00;;;;;;5013760;28;20189;-55
2023/05/30 12:37:31;;;;;;;0.60;0.60;;;18.00;54.00;;;;;;5014052;28;20637;-57
2023/05/30 12:40:05;;;;;;;0.50;0.50;;;18.00;54.00;;;;;;5011265;28;20186;-58
2023/05/30 12:42:38;;;;;;;0.50;0.50;;;18.00;54.00;;;;;;5013657;28;20241;-58
2023/05/30 12:45:09;;;;;;;0.93;0.60;;;18.00;54.00;;;;;;5011800;28;20276;-58
2023/05/30 12:47:40;;;;;;;0.50;0.50;;;18.00;54.00;;;;;;5013500;28;20645;-58
2023/05/30 12:50:11;;;;;;;1.05;0.55;;;18.00;54.00;;;;;;5013516;28;20582;-58
2023/05/30 12:52:42;;;;;;;1.00;0.70;;;17.90;54.00;;;;;;5010698;28;20223;-57
2023/05/30 12:55:14;;;;;;;0.82;0.60;;;17.90;53.90;;;;;;5013194;28;20196;-59
2023/05/30 12:57:45;;;;;;;0.50;0.50;;;17.90;53.90;;;;;;5010942;28;20646;-59
2023/05/30 13:00:16;;;;;;;0.50;0.50;;;17.90;53.90;;;;;;5013158;28;20677;-59
2023/05/30 13:02:48;;;;;;;0.90;0.60;;;17.90;54.00;;;;;;5010865;28;20213;-59
2023/05/30 13:05:19;;;;;;;0.60;0.40;;;17.90;54.00;;;;;;5012377;28;20181;-59
2023/05/30 13:07:50;;;;;;;1.27;0.60;;;17.90;54.00;;;;;;5012886;28;20189;-59
2023/05/30 13:10:22;;;;;;;0.63;0.60;;;17.90;54.00;;;;;;5013075;28;20221;-59
2023/05/30 13:12:53;;;;;;;0.40;0.40;;;17.90;54.00;;;;;;5013388;28;20274;-59
2023/05/30 13:15:23;;;;;;;0.55;0.43;;;17.80;53.90;;;;;;5010556;28;20192;-58